Time;durP1;ratioP1;P1;durP2;ratioP2;P2;SDS_P1;SDS_P2;PMS_P1;PMS_P2;Temp;Humidity;BMP_temperature;BMP_pressure;BME280_temperature;BME280_humidity;BME280_pressure;Samples;Min_cycle;Max_cycle;Signal;HPM_P1;HPM_P2
2023/04/19 00:00:40;;;;;;;6.82;4.30;;;10.30;99.90;;;;;;5041703;28;20227;-87
2023/04/19 00:03:07;;;;;;;7.15;4.50;;;10.30;99.90;;;;;;5044935;28;20207;-86
2023/04/19 00:05:32;;;;;;;9.55;5.10;;;10.30;99.90;;;;;;5057919;28;20172;-85
2023/04/19 00:07:59;;;;;;;7.45;4.45;;;;;;;;;;5057075;28;20169;-88
2023/04/19 00:10:29;;;;;;;5.88;3.67;;;10.30;99.90;;;;;;5053328;28;20173;-90
2023/04/19 00:12:55;;;;;;;6.55;3.88;;;10.20;99.90;;;;;;5055563;28;20227;-86
2023/04/19 00:15:21;;;;;;;5.35;4.05;;;;;;;;;;5040622;28;20180;-86
2023/04/19 00:17:46;;;;;;;6.82;4.50;;;10.20;99.90;;;;;;5033385;28;20177;-86
2023/04/19 00:20:12;;;;;;;6.97;3.75;;;10.20;99.90;;;;;;5033603;28;20626;-87
2023/04/19 00:22:38;;;;;;;7.32;4.40;;;10.20;99.90;;;;;;5033276;28;20796;-86
2023/04/19 00:25:04;;;;;;;6.63;4.38;;;10.20;99.90;;;;;;5034947;28;20202;-88
2023/04/19 00:27:30;;;;;;;8.65;4.40;;;10.10;99.90;;;;;;5016381;28;20545;-86
2023/04/19 00:29:56;;;;;;;9.23;4.47;;;10.10;99.90;;;;;;5032791;28;20173;-85
2023/04/19 00:32:22;;;;;;;6.32;3.78;;;10.10;99.90;;;;;;5032877;28;20196;-87
2023/04/19 00:34:48;;;;;;;8.68;3.90;;;10.10;99.90;;;;;;5032533;28;20211;-86
2023/04/19 00:37:14;;;;;;;4.95;3.58;;;10.10;99.90;;;;;;5033092;28;20188;-86
2023/04/19 00:39:40;;;;;;;5.47;3.85;;;10.10;99.90;;;;;;5032737;28;20212;-87
2023/04/19 00:42:05;;;;;;;9.50;4.65;;;10.00;99.90;;;;;;5016225;28;20721;-87
2023/04/19 00:44:31;;;;;;;8.30;4.50;;;10.00;99.90;;;;;;5032781;28;20168;-87
2023/04/19 00:46:58;;;;;;;8.43;4.93;;;10.00;99.90;;;;;;5016501;28;20525;-88
2023/04/19 00:49:25;;;;;;;8.65;4.30;;;10.00;99.90;;;;;;5032636;28;20188;-86
2023/04/19 00:51:51;;;;;;;6.95;4.15;;;10.00;99.90;;;;;;5032800;28;20235;-86
2023/04/19 00:54:18;;;;;;;5.57;3.83;;;10.00;99.90;;;;;;5032478;28;20180;-85
2023/04/19 00:56:44;;;;;;;5.45;3.72;;;9.90;99.90;;;;;;5015380;28;20211;-85
2023/04/19 00:59:11;;;;;;;15.73;5.28;;;9.90;99.90;;;;;;5031986;28;20323;-86
2023/04/19 01:01:38;;;;;;;8.13;5.07;;;9.90;99.90;;;;;;5033185;28;20189;-86
2023/04/19 01:04:07;;;;;;;8.63;5.20;;;9.90;99.90;;;;;;5016918;28;20176;-87
2023/04/19 01:06:34;;;;;;;8.68;4.85;;;9.90;99.90;;;;;;5016286;28;20183;-88
2023/04/19 01:09:00;;;;;;;7.03;4.65;;;9.80;99.90;;;;;;5017013;28;20323;-86
2023/04/19 01:11:27;;;;;;;11.45;5.15;;;9.80;99.90;;;;;;5017247;28;20725;-86
2023/04/19 01:13:55;;;;;;;8.15;4.45;;;9.80;99.90;;;;;;5034634;28;20295;-87
2023/04/19 01:16:24;;;;;;;8.65;5.03;;;9.80;99.90;;;;;;5033447;28;20180;-87
2023/04/19 01:18:49;;;;;;;9.98;4.55;;;9.70;99.90;;;;;;5031943;28;20690;-87
2023/04/19 01:21:16;;;;;;;8.02;4.22;;;;;;;;;;5016226;28;20279;-86
2023/04/19 01:23:42;;;;;;;9.73;4.55;;;9.60;99.90;;;;;;5032460;28;20180;-87
2023/04/19 01:26:07;;;;;;;10.25;5.10;;;9.60;99.90;;;;;;5016198;28;20179;-87
2023/04/19 01:28:33;;;;;;;7.93;5.23;;;9.50;99.90;;;;;;5036343;28;20647;-86
2023/04/19 01:30:58;;;;;;;7.40;4.43;;;9.40;99.90;;;;;;5037601;28;20270;-86
2023/04/19 01:33:24;;;;;;;7.07;4.47;;;9.30;99.90;;;;;;5020293;28;20595;-87
2023/04/19 01:35:50;;;;;;;10.27;5.10;;;;;;;;;;5036643;28;20184;-87
2023/04/19 01:38:16;;;;;;;7.53;4.57;;;9.20;99.90;;;;;;5036710;28;20276;-87
2023/04/19 01:40:43;;;;;;;10.65;5.30;;;9.30;99.90;;;;;;5036901;28;20706;-87
2023/04/19 01:43:12;;;;;;;9.75;5.65;;;8.70;99.90;;;;;;5037230;28;20181;-86
2023/04/19 01:45:38;;;;;;;8.02;5.15;;;9.00;99.90;;;;;;5036994;28;20177;-87
2023/04/19 01:48:03;;;;;;;9.53;5.70;;;9.00;99.90;;;;;;5020338;28;20187;-87
2023/04/19 01:50:30;;;;;;;7.83;5.27;;;9.00;99.90;;;;;;5037426;28;20649;-86
2023/04/19 01:52:58;;;;;;;8.43;5.67;;;9.00;99.90;;;;;;5036154;28;20572;-87
2023/04/19 01:55:24;;;;;;;8.27;5.20;;;9.00;99.90;;;;;;5020145;28;20208;-87
2023/04/19 01:57:53;;;;;;;9.87;6.33;;;8.90;99.90;;;;;;5036293;28;20630;-87
2023/04/19 02:00:19;;;;;;;10.67;5.33;;;8.90;99.90;;;;;;5035912;28;20569;-87
2023/04/19 02:02:45;;;;;;;8.57;5.20;;;8.90;99.90;;;;;;5028186;28;20180;-86
2023/04/19 02:05:10;;;;;;;8.43;4.53;;;8.80;99.90;;;;;;5015999;28;20184;-86
2023/04/19 02:07:37;;;;;;;12.33;5.60;;;8.80;99.90;;;;;;5016012;28;20182;-86
2023/04/19 02:10:04;;;;;;;10.30;5.90;;;8.80;99.90;;;;;;5016120;28;20249;-87
2023/04/19 02:12:33;;;;;;;12.63;6.13;;;8.80;99.90;;;;;;5017926;28;20204;-87
2023/04/19 02:15:01;;;;;;;10.17;5.10;;;8.70;99.90;;;;;;5016406;28;20185;-87
2023/04/19 02:17:27;;;;;;;7.33;4.53;;;8.70;99.90;;;;;;5032433;28;20195;-86
2023/04/19 02:19:54;;;;;;;9.17;5.03;;;8.70;99.90;;;;;;5015520;28;20197;-86
2023/04/19 02:22:20;;;;;;;8.67;5.03;;;8.60;99.90;;;;;;5015849;28;20188;-87
2023/04/19 02:24:46;;;;;;;8.90;5.10;;;8.60;99.90;;;;;;5015956;28;20264;-87
2023/04/19 02:27:12;;;;;;;7.73;5.13;;;8.60;99.90;;;;;;5016633;28;20243;-86
2023/04/19 02:29:40;;;;;;;8.50;5.33;;;8.50;99.90;;;;;;5015838;28;20361;-85
2023/04/19 02:32:06;;;;;;;11.67;5.80;;;8.50;99.90;;;;;;5015279;28;20205;-87
2023/04/19 02:34:33;;;;;;;9.90;5.73;;;8.40;99.90;;;;;;5032141;28;20307;-85
2023/04/19 02:36:59;;;;;;;11.00;6.00;;;;;;;;;;5015148;28;20544;-86
2023/04/19 02:39:25;;;;;;;9.90;6.17;;;8.40;99.90;;;;;;5014852;28;20178;-85
2023/04/19 02:41:51;;;;;;;12.77;6.10;;;8.50;99.90;;;;;;5014984;28;20173;-85
2023/04/19 02:44:17;;;;;;;9.03;5.53;;;;;;;;;;5016311;28;20192;-85
2023/04/19 02:46:53;;;;;;;8.57;5.87;;;8.40;99.90;;;;;;5014889;28;20209;-85
2023/04/19 02:49:19;;;;;;;11.37;6.50;;;8.40;99.90;;;;;;5015357;28;20185;-86
2023/04/19 02:51:45;;;;;;;10.07;5.87;;;8.40;99.90;;;;;;5015228;28;20571;-87
2023/04/19 02:54:11;;;;;;;8.57;5.03;;;8.30;99.90;;;;;;5031488;28;20597;-86
2023/04/19 02:56:37;;;;;;;11.60;5.80;;;8.30;99.90;;;;;;5015394;28;20181;-86
2023/04/19 02:59:04;;;;;;;8.47;5.80;;;8.30;99.90;;;;;;5031057;28;20241;-87
2023/04/19 03:01:30;;;;;;;9.70;5.67;;;8.30;99.90;;;;;;5014878;28;20189;-86
2023/04/19 03:03:56;;;;;;;7.57;5.47;;;8.30;99.90;;;;;;5015112;28;20223;-86
2023/04/19 03:06:22;;;;;;;9.57;5.20;;;8.30;99.90;;;;;;5015754;28;20184;-87
2023/04/19 03:08:48;;;;;;;8.73;5.07;;;8.30;99.90;;;;;;5014460;28;20189;-87
2023/04/19 03:11:16;;;;;;;11.43;5.53;;;8.30;99.90;;;;;;5015343;28;20559;-87
2023/04/19 03:13:42;;;;;;;10.70;5.70;;;;;;;;;;5015548;28;20178;-87
2023/04/19 03:16:08;;;;;;;9.00;4.83;;;8.20;99.90;;;;;;5032124;28;20261;-88
2023/04/19 03:18:35;;;;;;;7.73;5.13;;;;;;;;;;5020439;28;20529;-87
2023/04/19 03:21:01;;;;;;;8.77;5.43;;;8.20;99.90;;;;;;5014189;28;20239;-89
2023/04/19 03:23:27;;;;;;;6.60;4.93;;;8.70;99.90;;;;;;5023002;28;20177;-88
2023/04/19 03:25:53;;;;;;;11.03;5.43;;;;;;;;;;5022979;28;20177;-88
2023/04/19 03:28:19;;;;;;;6.90;4.53;;;8.20;99.90;;;;;;5014198;28;20647;-89
2023/04/19 03:30:45;;;;;;;7.47;5.57;;;;;;;;;;5013974;28;20181;-89
2023/04/19 03:33:11;;;;;;;9.77;5.57;;;;;;;;;;5013809;28;20185;-88
2023/04/19 03:35:38;;;;;;;7.03;4.77;;;8.10;99.90;;;;;;5014653;28;20632;-89
2023/04/19 03:38:04;;;;;;;8.13;4.67;;;8.10;99.90;;;;;;5050356;28;20230;-87
2023/04/19 03:40:32;;;;;;;9.07;5.60;;;8.10;99.90;;;;;;5048601;28;20541;-87
2023/04/19 03:42:58;;;;;;;9.23;5.37;;;8.10;99.90;;;;;;5043677;28;20189;-86
2023/04/19 03:45:26;;;;;;;7.00;4.87;;;8.10;99.90;;;;;;5014279;28;20212;-88
2023/04/19 03:47:51;;;;;;;9.70;5.57;;;8.10;99.90;;;;;;5032815;28;20188;-87
2023/04/19 03:50:17;;;;;;;9.93;5.60;;;8.10;99.90;;;;;;5015360;28;20192;-86
2023/04/19 03:52:43;;;;;;;7.63;5.17;;;8.10;99.90;;;;;;5024450;28;20294;-87
2023/04/19 03:55:10;;;;;;;8.53;4.90;;;8.10;99.90;;;;;;5027907;28;20192;-91
2023/04/19 03:57:37;;;;;;;9.97;4.93;;;8.00;99.90;;;;;;5014960;28;20184;-87
2023/04/19 04:00:07;;;;;;;11.60;4.47;;;8.10;99.90;;;;;;5058740;28;20335;-87
2023/04/19 04:02:33;;;;;;;13.53;5.53;;;8.10;99.90;;;;;;5046881;28;20192;-87
2023/04/19 04:04:59;;;;;;;12.07;5.40;;;8.10;99.90;;;;;;5043694;28;20196;-87
2023/04/19 04:07:24;;;;;;;9.60;5.30;;;8.10;99.90;;;;;;5022214;28;20308;-87
2023/04/19 04:09:50;;;;;;;11.33;5.90;;;8.10;99.90;;;;;;5032288;28;20223;-88
2023/04/19 04:12:16;;;;;;;11.33;5.70;;;8.10;99.90;;;;;;5030242;28;20220;-88
2023/04/19 04:14:42;;;;;;;11.67;6.23;;;;;;;;;;5031732;28;20295;-88
2023/04/19 04:17:07;;;;;;;10.70;5.33;;;8.00;99.90;;;;;;5031573;28;20204;-87
2023/04/19 04:19:34;;;;;;;12.43;5.40;;;;;;;;;;5033413;28;20188;-90
2023/04/19 04:22:00;;;;;;;12.97;5.00;;;;;;;;;;5047546;28;20250;-89
2023/04/19 04:24:26;;;;;;;9.17;5.60;;;8.00;99.90;;;;;;5044272;28;20231;-89
2023/04/19 04:26:52;;;;;;;8.47;5.00;;;7.90;99.90;;;;;;5016691;28;20195;-88
2023/04/19 04:29:18;;;;;;;8.77;5.20;;;8.00;99.90;;;;;;5057647;28;20271;-89
2023/04/19 04:31:43;;;;;;;10.37;4.67;;;5.60;99.90;;;;;;5030367;28;20212;-88
2023/04/19 04:34:09;;;;;;;13.77;5.27;;;;;;;;;;5032983;28;20571;-89
2023/04/19 04:36:36;;;;;;;9.70;5.37;;;8.00;99.90;;;;;;5047148;28;20192;-89
2023/04/19 04:39:03;;;;;;;7.17;4.30;;;8.00;99.90;;;;;;5023972;28;20220;-90
2023/04/19 04:41:30;;;;;;;9.47;5.03;;;8.00;99.90;;;;;;5029099;28;20222;-90
2023/04/19 04:43:57;;;;;;;9.53;5.13;;;8.00;99.90;;;;;;5027041;28;20213;-90
2023/04/19 04:46:23;;;;;;;10.53;5.57;;;8.00;99.90;;;;;;5025816;28;20185;-89
2023/04/19 04:48:50;;;;;;;8.40;4.80;;;;;;;;;;5030570;28;20185;-89
2023/04/19 04:51:15;;;;;;;9.90;5.60;;;8.00;99.90;;;;;;5041526;28;20278;-86
2023/04/19 04:53:42;;;;;;;7.67;4.77;;;8.00;99.90;;;;;;5055633;28;20200;-89
2023/04/19 04:56:08;;;;;;;9.50;5.60;;;8.00;99.90;;;;;;5038533;28;20191;-89
2023/04/19 04:58:33;;;;;;;8.93;4.97;;;8.00;99.90;;;;;;5058517;28;20188;-89
2023/04/19 05:00:59;;;;;;;15.53;5.17;;;8.00;99.90;;;;;;5041462;28;20188;-87
2023/04/19 05:03:26;;;;;;;9.30;5.53;;;8.00;99.90;;;;;;5053168;28;20180;-87
2023/04/19 05:05:52;;;;;;;8.60;5.03;;;8.00;99.90;;;;;;5051739;28;20188;-87
2023/04/19 05:08:17;;;;;;;9.47;5.57;;;8.10;99.90;;;;;;5015404;28;20245;-87
2023/04/19 05:10:43;;;;;;;9.10;5.50;;;8.10;99.90;;;;;;5031856;28;20654;-88
2023/04/19 05:13:08;;;;;;;10.07;5.50;;;8.00;99.90;;;;;;5032251;28;20230;-88
2023/04/19 05:15:34;;;;;;;11.23;5.90;;;8.10;99.90;;;;;;5015455;28;20184;-87
2023/04/19 05:18:00;;;;;;;14.23;7.23;;;;;;;;;;5015642;28;20639;-87
2023/04/19 05:20:26;;;;;;;11.13;6.23;;;8.00;99.90;;;;;;5015811;28;20192;-86
2023/04/19 05:23:00;;;;;;;10.17;6.17;;;8.00;99.90;;;;;;5015481;28;20200;-87
2023/04/19 05:25:26;;;;;;;9.97;5.47;;;8.00;99.90;;;;;;5032869;28;20192;-86
2023/04/19 05:27:52;;;;;;;11.83;6.53;;;8.00;99.90;;;;;;5015608;28;20208;-88
2023/04/19 05:30:19;;;;;;;10.80;6.40;;;8.00;99.90;;;;;;5032742;28;20623;-87
2023/04/19 05:32:45;;;;;;;12.23;6.83;;;8.00;99.90;;;;;;5032802;28;20204;-87
2023/04/19 05:35:11;;;;;;;12.60;7.03;;;;;;;;;;5015200;28;20187;-87
2023/04/19 05:37:38;;;;;;;18.23;6.50;;;8.10;99.90;;;;;;5015514;28;20244;-89
2023/04/19 05:40:04;;;;;;;10.93;6.47;;;8.00;99.90;;;;;;5031536;28;20569;-88
2023/04/19 05:42:31;;;;;;;8.83;5.33;;;;;;;;;;5014521;28;20713;-87
2023/04/19 05:44:56;;;;;;;10.90;6.60;;;8.10;99.90;;;;;;5031126;28;20187;-90
2023/04/19 05:47:22;;;;;;;16.03;6.47;;;8.10;99.90;;;;;;5031136;28;20259;-87
2023/04/19 05:49:50;;;;;;;9.80;5.83;;;8.10;99.90;;;;;;5016325;28;20640;-88
2023/04/19 05:52:16;;;;;;;13.17;6.87;;;8.10;99.90;;;;;;5030815;28;20204;-88
2023/04/19 05:54:43;;;;;;;10.23;6.30;;;8.20;99.90;;;;;;5014976;28;20235;-89
2023/04/19 05:57:09;;;;;;;12.33;5.53;;;8.20;99.90;;;;;;5016147;28;20219;-88
2023/04/19 05:59:35;;;;;;;9.43;5.00;;;;;;;;;;5032216;28;20586;-88
2023/04/19 06:02:03;;;;;;;13.30;6.47;;;8.30;99.90;;;;;;5046180;28;20225;-88
2023/04/19 06:04:28;;;;;;;9.20;5.97;;;8.30;99.90;;;;;;5033476;28;20187;-87
2023/04/19 06:06:55;;;;;;;12.53;6.10;;;;;;;;;;5034620;28;20181;-87
2023/04/19 06:09:21;;;;;;;11.30;6.80;;;8.40;99.90;;;;;;5019345;28;20291;-87
2023/04/19 06:11:46;;;;;;;12.90;6.70;;;8.50;99.90;;;;;;5034591;28;20681;-87
2023/04/19 06:14:12;;;;;;;13.17;7.70;;;7.90;99.90;;;;;;5033989;28;20181;-88
2023/04/19 06:16:39;;;;;;;13.83;7.27;;;8.60;99.90;;;;;;5017920;28;20211;-88
2023/04/19 06:19:05;;;;;;;12.87;7.30;;;8.60;99.90;;;;;;5034871;28;20183;-87
2023/04/19 06:21:31;;;;;;;13.97;7.10;;;8.60;99.90;;;;;;5035772;28;20177;-87
2023/04/19 06:23:57;;;;;;;11.83;6.80;;;8.70;99.90;;;;;;5035224;28;20176;-88
2023/04/19 06:26:23;;;;;;;14.63;8.23;;;8.70;99.90;;;;;;5034331;28;20278;-88
2023/04/19 06:28:48;;;;;;;13.27;6.97;;;8.80;99.90;;;;;;5034365;28;20181;-87
2023/04/19 06:31:14;;;;;;;10.77;6.20;;;8.80;99.90;;;;;;5018104;28;20215;-87
2023/04/19 06:33:40;;;;;;;11.63;5.83;;;8.80;99.90;;;;;;5017566;28;20184;-87
2023/04/19 06:36:06;;;;;;;10.02;6.40;;;8.80;99.90;;;;;;5035409;28;20184;-87
2023/04/19 06:38:31;;;;;;;10.93;6.17;;;8.90;99.90;;;;;;5017630;28;20176;-87
2023/04/19 06:40:57;;;;;;;8.87;6.47;;;9.00;99.90;;;;;;5036014;28;20188;-87
2023/04/19 06:43:23;;;;;;;12.63;6.73;;;9.10;99.90;;;;;;5034609;28;20627;-87
2023/04/19 06:45:59;;;;;;;11.07;6.87;;;9.00;99.90;;;;;;5034501;28;20687;-86
2023/04/19 06:48:26;;;;;;;11.73;5.87;;;9.10;99.90;;;;;;5033585;28;20187;-87
2023/04/19 06:50:52;;;;;;;13.75;8.23;;;9.10;99.90;;;;;;5018080;28;20211;-86
2023/04/19 06:53:18;;;;;;;12.70;6.10;;;9.10;99.90;;;;;;5035771;28;20596;-86
2023/04/19 06:55:45;;;;;;;12.00;7.27;;;9.00;99.90;;;;;;5035203;28;20195;-87
2023/04/19 06:58:10;;;;;;;14.00;6.40;;;9.10;99.90;;;;;;5039172;28;20643;-86
2023/04/19 07:00:36;;;;;;;10.65;6.72;;;9.20;99.90;;;;;;5024486;28;20236;-87
2023/04/19 07:03:02;;;;;;;12.50;6.97;;;9.20;99.90;;;;;;5037638;28;20558;-87
2023/04/19 07:05:29;;;;;;;9.93;6.22;;;9.10;99.90;;;;;;5017319;28;20243;-87
2023/04/19 07:07:55;;;;;;;10.85;6.05;;;9.20;99.90;;;;;;5036609;28;20264;-87
2023/04/19 07:10:21;;;;;;;12.52;6.25;;;9.30;99.90;;;;;;5017673;28;20600;-86
2023/04/19 07:12:47;;;;;;;11.55;6.45;;;9.40;99.90;;;;;;5017626;28;20208;-88
2023/04/19 07:15:12;;;;;;;9.68;5.93;;;9.40;99.90;;;;;;5033586;28;20191;-87
2023/04/19 07:17:39;;;;;;;12.13;6.30;;;9.40;99.90;;;;;;5016048;28;20533;-87
2023/04/19 07:20:05;;;;;;;9.68;5.60;;;9.40;99.90;;;;;;5016786;28;20180;-86
2023/04/19 07:22:31;;;;;;;9.65;5.55;;;9.50;99.90;;;;;;5032642;28;20184;-87
2023/04/19 07:24:57;;;;;;;13.02;5.88;;;9.50;99.90;;;;;;5031768;28;21565;-86
2023/04/19 07:27:24;;;;;;;14.07;8.07;;;9.50;99.90;;;;;;5030436;28;20168;-86
2023/04/19 07:29:49;;;;;;;17.10;9.60;;;9.50;99.90;;;;;;5032739;28;20188;-87
2023/04/19 07:32:15;;;;;;;14.90;8.13;;;9.60;99.90;;;;;;5016171;28;20208;-86
2023/04/19 07:34:42;;;;;;;14.55;7.97;;;9.60;99.90;;;;;;5032229;28;20189;-87
2023/04/19 07:37:08;;;;;;;13.18;8.15;;;9.60;99.90;;;;;;5016656;28;20185;-87
2023/04/19 07:39:33;;;;;;;13.32;7.18;;;9.60;99.90;;;;;;5033291;28;20184;-87
2023/04/19 07:42:02;;;;;;;13.77;7.35;;;9.70;99.90;;;;;;5017121;28;20275;-86
2023/04/19 07:44:27;;;;;;;17.02;9.15;;;9.80;99.90;;;;;;5022225;28;20191;-86
2023/04/19 07:46:53;;;;;;;15.23;7.80;;;9.80;99.90;;;;;;5035399;28;20184;-87
2023/04/19 07:49:19;;;;;;;14.90;8.10;;;9.80;99.90;;;;;;5034218;28;20569;-87
2023/04/19 07:51:45;;;;;;;10.13;7.15;;;9.70;99.90;;;;;;5034591;28;20230;-88
2023/04/19 07:54:11;;;;;;;9.30;6.05;;;9.80;99.90;;;;;;5034609;28;20188;-87
2023/04/19 07:56:37;;;;;;;12.60;6.65;;;9.80;99.90;;;;;;5017023;28;20189;-87
2023/04/19 07:59:02;;;;;;;9.15;5.47;;;9.80;99.90;;;;;;5033764;28;20294;-87
2023/04/19 08:01:28;;;;;;;10.43;5.43;;;9.80;99.90;;;;;;5016921;28;20267;-86
2023/04/19 08:03:54;;;;;;;9.95;6.00;;;9.80;99.90;;;;;;5017069;28;20184;-84
2023/04/19 08:06:22;;;;;;;9.52;5.97;;;9.80;99.90;;;;;;5016554;28;20242;-85
2023/04/19 08:08:48;;;;;;;17.05;7.20;;;9.80;99.90;;;;;;5032764;28;20190;-85
2023/04/19 08:11:14;;;;;;;9.85;6.03;;;9.80;99.90;;;;;;5015682;28;20201;-86
2023/04/19 08:13:40;;;;;;;11.43;6.40;;;9.90;99.90;;;;;;5015036;28;20199;-85
2023/04/19 08:16:06;;;;;;;13.90;7.13;;;9.80;99.90;;;;;;5031951;28;20187;-85
2023/04/19 08:18:32;;;;;;;10.48;6.70;;;9.90;99.90;;;;;;5031926;28;20181;-85
2023/04/19 08:20:58;;;;;;;13.30;7.40;;;9.90;99.90;;;;;;5015427;28;20184;-86
2023/04/19 08:23:24;;;;;;;15.10;7.63;;;9.90;99.90;;;;;;5016015;28;20532;-85
2023/04/19 08:25:50;;;;;;;10.25;6.35;;;9.90;99.90;;;;;;5033537;28;20191;-85
2023/04/19 08:28:18;;;;;;;12.05;6.47;;;10.00;99.90;;;;;;5015117;28;20185;-85
2023/04/19 08:30:44;;;;;;;11.77;8.00;;;10.10;99.90;;;;;;5031164;28;20188;-86
2023/04/19 08:33:09;;;;;;;15.23;7.68;;;10.30;99.90;;;;;;5031031;28;20207;-86
2023/04/19 08:35:37;;;;;;;10.82;7.18;;;10.20;99.90;;;;;;5032114;28;20260;-85
2023/04/19 08:38:03;;;;;;;12.93;7.80;;;10.20;99.90;;;;;;5031623;28;20181;-87
2023/04/19 08:40:32;;;;;;;12.57;7.18;;;10.20;99.90;;;;;;5031183;28;20199;-85
2023/04/19 08:42:59;;;;;;;12.60;7.22;;;10.10;99.90;;;;;;5031242;28;20177;-86
2023/04/19 08:45:26;;;;;;;11.25;7.43;;;10.00;99.90;;;;;;5014826;28;20631;-85
2023/04/19 08:47:55;;;;;;;9.63;7.00;;;10.00;99.90;;;;;;5030521;28;20191;-86
2023/04/19 08:50:21;;;;;;;12.85;6.63;;;10.00;99.90;;;;;;5031605;28;20218;-86
2023/04/19 08:52:47;;;;;;;12.65;6.75;;;10.10;99.90;;;;;;5014328;28;20295;-86
2023/04/19 08:55:14;;;;;;;11.77;6.32;;;10.10;99.90;;;;;;5015060;28;20184;-87
2023/04/19 08:57:40;;;;;;;8.48;6.05;;;10.20;99.90;;;;;;5014640;28;20181;-88
2023/04/19 09:00:08;;;;;;;12.00;6.82;;;10.20;99.90;;;;;;5030970;28;20223;-86
2023/04/19 09:03:05;;;;;;;10.07;6.30;;;10.20;99.90;;;;;;5032177;28;20180;-86
2023/04/19 09:05:31;;;;;;;13.10;6.65;;;10.20;99.90;;;;;;5022295;28;20188;-87
2023/04/19 09:08:29;;;;;;;11.73;6.55;;;10.30;99.90;;;;;;5030593;28;20180;-87
2023/04/19 09:11:00;;;;;;;12.40;6.88;;;8.40;99.90;;;;;;5029979;28;20191;-87
2023/04/19 09:13:27;;;;;;;13.85;7.90;;;10.50;99.90;;;;;;5041886;28;20184;-87
2023/04/19 09:15:55;;;;;;;13.90;8.20;;;10.60;99.90;;;;;;5031088;28;20278;-87
2023/04/19 09:18:23;;;;;;;13.52;7.40;;;10.80;99.90;;;;;;5031471;28;20184;-89
2023/04/19 09:20:50;;;;;;;16.35;8.65;;;10.80;99.90;;;;;;5033000;28;20177;-88
2023/04/19 09:23:17;;;;;;;12.80;8.25;;;11.00;99.90;;;;;;5014716;28;20234;-87
2023/04/19 09:25:55;;;;;;;16.40;8.65;;;11.70;99.90;;;;;;5031352;28;20263;-87
2023/04/19 09:28:21;;;;;;;14.35;7.28;;;11.10;99.90;;;;;;5031926;28;20175;-87
2023/04/19 09:30:47;;;;;;;14.45;8.68;;;11.20;99.90;;;;;;5031811;28;20177;-86
2023/04/19 09:33:13;;;;;;;13.63;8.15;;;11.30;99.90;;;;;;5030896;28;20679;-85
2023/04/19 09:35:43;;;;;;;16.45;8.15;;;11.50;99.90;;;;;;5037773;28;20271;-88
2023/04/19 09:38:10;;;;;;;12.82;8.85;;;12.30;99.90;;;;;;5034403;28;20646;-88
2023/04/19 09:40:37;;;;;;;16.98;8.52;;;12.20;99.90;;;;;;5033855;28;20259;-87
2023/04/19 09:43:03;;;;;;;15.48;7.70;;;12.40;99.90;;;;;;5034054;28;20181;-89
2023/04/19 09:45:46;;;;;;;11.48;7.97;;;12.60;99.90;;;;;;5031004;28;20176;-89
2023/04/19 09:48:12;;;;;;;10.23;6.82;;;12.70;99.90;;;;;;5032974;28;20234;-88
2023/04/19 09:50:54;;;;;;;13.57;7.78;;;12.80;99.90;;;;;;5018517;28;20635;-87
2023/04/19 09:53:21;;;;;;;12.27;7.30;;;12.70;99.90;;;;;;5048833;28;20318;-87
2023/04/19 09:55:47;;;;;;;12.57;7.28;;;12.80;99.90;;;;;;5017856;28;20189;-87
2023/04/19 09:58:14;;;;;;;19.48;7.72;;;13.00;99.90;;;;;;5034797;28;20185;-87
2023/04/19 10:00:46;;;;;;;15.82;8.05;;;13.40;99.90;;;;;;5017571;28;20228;-87
2023/04/19 10:03:14;;;;;;;13.77;7.68;;;13.90;99.90;;;;;;5031600;28;20657;-89
2023/04/19 10:05:41;;;;;;;11.77;6.82;;;14.20;99.90;;;;;;5034801;28;20196;-86
2023/04/19 10:08:08;;;;;;;10.85;6.05;;;14.20;99.90;;;;;;5016998;28;20275;-88
2023/04/19 10:10:34;;;;;;;8.60;6.07;;;14.40;99.90;;;;;;5017665;28;20189;-88
2023/04/19 10:13:02;;;;;;;13.18;6.88;;;14.40;99.90;;;;;;5033507;28;20338;-89
2023/04/19 10:15:30;;;;;;;11.90;6.93;;;14.40;99.90;;;;;;5021713;28;20276;-88
2023/04/19 10:17:56;;;;;;;10.20;6.40;;;14.40;99.90;;;;;;5040814;28;20180;-88
2023/04/19 10:20:52;;;;;;;11.20;6.88;;;14.40;99.90;;;;;;5043688;28;20180;-87
2023/04/19 10:23:19;;;;;;;10.27;6.18;;;14.30;99.90;;;;;;5033404;28;20192;-88
2023/04/19 10:25:46;;;;;;;11.25;6.82;;;14.80;99.90;;;;;;5019929;28;20219;-89
2023/04/19 10:28:14;;;;;;;8.63;5.15;;;14.60;99.90;;;;;;5034748;28;20177;-89
2023/04/19 10:31:12;;;;;;;11.88;7.05;;;14.70;99.90;;;;;;5034797;28;20718;-88
2023/04/19 10:33:39;;;;;;;11.27;6.63;;;14.90;99.90;;;;;;5002268;28;20204;-88
2023/04/19 10:36:09;;;;;;;9.10;6.32;;;15.00;99.90;;;;;;5034662;28;20176;-88
2023/04/19 10:38:46;;;;;;;10.15;5.45;;;15.10;99.90;;;;;;5034885;28;20555;-89
2023/04/19 10:41:13;;;;;;;11.10;6.13;;;15.10;99.90;;;;;;5034789;28;20176;-88
2023/04/19 10:43:46;;;;;;;13.45;5.72;;;15.00;99.90;;;;;;5034525;28;20177;-82
2023/04/19 10:46:13;;;;;;;11.82;6.00;;;15.00;99.90;;;;;;5034478;28;20252;-88
2023/04/19 10:48:59;;;;;;;9.98;6.40;;;14.80;99.90;;;;;;5034347;28;20208;-89
2023/04/19 10:51:54;;;;;;;11.10;6.50;;;15.20;99.90;;;;;;5034332;28;20231;-87
2023/04/19 10:54:34;;;;;;;14.48;5.65;;;15.00;99.90;;;;;;5027883;28;20195;-87
2023/04/19 10:57:00;;;;;;;8.88;5.68;;;15.40;99.90;;;;;;5017853;28;20192;-88
2023/04/19 10:59:29;;;;;;;17.90;9.70;;;15.50;99.90;;;;;;5035232;28;20264;-87
2023/04/19 11:02:00;;;;;;;14.40;7.38;;;15.60;99.90;;;;;;5033917;28;20184;-88
2023/04/19 11:04:29;;;;;;;9.00;5.15;;;15.80;99.90;;;;;;5034205;28;20180;-87
2023/04/19 11:06:55;;;;;;;10.23;4.57;;;16.00;99.90;;;;;;5034202;28;20173;-87
2023/04/19 11:09:23;;;;;;;6.68;4.55;;;16.30;99.90;;;;;;5034775;28;20173;-88
2023/04/19 11:11:49;;;;;;;3.42;2.75;;;16.60;99.90;;;;;;5034257;28;20239;-87
2023/04/19 11:14:16;;;;;;;2.92;2.03;;;16.80;99.90;;;;;;5033788;28;20184;-88
2023/04/19 11:16:43;;;;;;;4.82;2.53;;;17.10;97.90;;;;;;5034166;28;20226;-88
2023/04/19 11:19:08;;;;;;;4.63;2.75;;;17.40;97.30;;;;;;5017803;28;20697;-89
2023/04/19 11:21:39;;;;;;;51.17;24.83;;;17.60;88.50;;;;;;5018430;28;20184;-89
2023/04/19 11:24:08;;;;;;;2.60;2.17;;;17.60;90.00;;;;;;5035247;28;20180;-88
2023/04/19 11:26:34;;;;;;;4.05;1.90;;;17.70;83.60;;;;;;5035036;28;20185;-87
2023/04/19 11:29:00;;;;;;;3.35;1.73;;;17.90;85.40;;;;;;5034933;28;20192;-86
2023/04/19 11:31:26;;;;;;;4.10;1.52;;;18.10;88.00;;;;;;5035069;28;20290;-86
2023/04/19 11:33:53;;;;;;;4.22;1.60;;;18.10;81.70;;;;;;5035390;28;20177;-86
2023/04/19 11:36:18;;;;;;;3.08;1.50;;;18.00;80.40;;;;;;5033278;28;20180;-86
2023/04/19 11:38:48;;;;;;;3.20;1.67;;;18.20;81.30;;;;;;5034374;28;20252;-88
2023/04/19 11:41:14;;;;;;;2.75;1.70;;;18.00;79.50;;;;;;5034437;28;20179;-86
2023/04/19 11:43:40;;;;;;;2.45;1.40;;;17.50;78.80;;;;;;5018095;28;20187;-87
2023/04/19 11:46:10;;;;;;;1.77;1.27;;;17.50;80.00;;;;;;5015589;28;20184;-87
2023/04/19 11:48:37;;;;;;;4.20;1.88;;;17.50;79.70;;;;;;5018069;28;20204;-88
2023/04/19 11:51:03;;;;;;;1.95;1.48;;;17.40;80.60;;;;;;5036084;28;20187;-87
2023/04/19 11:53:30;;;;;;;1.80;1.38;;;16.80;81.40;;;;;;5033026;28;20188;-88
2023/04/19 11:56:07;;;;;;;1.98;1.40;;;16.50;81.60;;;;;;5016682;28;20180;-89
2023/04/19 11:59:08;;;;;;;4.50;1.60;;;16.20;84.50;;;;;;5039509;28;20263;-91
2023/04/19 12:01:33;;;;;;;1.90;1.48;;;15.90;83.40;;;;;;5032456;28;20195;-90
2023/04/19 12:04:00;;;;;;;3.88;2.10;;;15.50;84.30;;;;;;5017163;28;20476;-89
2023/04/19 12:06:32;;;;;;;2.33;1.48;;;15.30;85.10;;;;;;5015495;28;20267;-91
2023/04/19 12:08:58;;;;;;;1.08;0.88;;;15.50;87.30;;;;;;5033954;28;20252;-91
2023/04/19 12:11:38;;;;;;;1.50;1.08;;;15.60;87.10;;;;;;5033056;28;20350;-92
2023/04/19 12:14:15;;;;;;;1.90;1.05;;;16.20;87.80;;;;;;5047751;28;20188;-90
2023/04/19 12:16:41;;;;;;;1.42;1.10;;;16.60;84.80;;;;;;5035137;28;20171;-90
2023/04/19 12:19:19;;;;;;;2.30;1.58;;;16.80;82.80;;;;;;5033831;28;20185;-90
2023/04/19 12:21:46;;;;;;;2.38;1.02;;;16.80;82.10;;;;;;5036119;28;20219;-89
2023/04/19 12:24:14;;;;;;;4.95;1.45;;;16.90;79.70;;;;;;5033317;28;20180;-89
2023/04/19 12:26:54;;;;;;;1.35;1.25;;;17.10;78.80;;;;;;5034591;28;20172;-90
2023/04/19 12:29:20;;;;;;;1.30;1.20;;;17.30;77.60;;;;;;5016609;28;20199;-91
2023/04/19 12:31:45;;;;;;;3.38;1.52;;;17.20;74.80;;;;;;5016486;28;20212;-89
2023/04/19 12:34:11;;;;;;;1.80;1.08;;;17.30;74.90;;;;;;5016141;28;20220;-87
2023/04/19 12:36:37;;;;;;;3.17;1.25;;;16.30;75.70;;;;;;5017036;28;20205;-90
2023/04/19 12:39:06;;;;;;;1.65;1.20;;;17.60;75.50;;;;;;5033560;28;20233;-89
2023/04/19 12:41:31;;;;;;;2.45;1.30;;;17.10;74.80;;;;;;5034007;28;20191;-90
2023/04/19 12:43:57;;;;;;;1.17;0.90;;;;;;;;;;5032697;28;20176;-90
2023/04/19 12:46:23;;;;;;;0.85;0.85;;;17.90;71.70;;;;;;5032561;28;20183;-90
2023/04/19 12:48:49;;;;;;;2.80;1.80;;;18.00;72.30;;;;;;5032363;28;20259;-90
2023/04/19 12:51:14;;;;;;;1.15;1.05;;;18.00;69.30;;;;;;5032599;28;20181;-89
2023/04/19 12:53:48;;;;;;;2.42;1.00;;;18.30;75.50;;;;;;5021487;28;20256;-89
2023/04/19 12:56:14;;;;;;;2.88;1.30;;;18.30;70.10;;;;;;5040757;28;20191;-90